createdAt,value
2018-04-06T00:00:08.719Z,82.90
2018-04-06T00:01:08.649Z,81.67
2018-04-06T00:02:08.563Z,81.57
2018-04-06T00:03:08.496Z,82.14
2018-04-06T00:04:08.405Z,83.94
2018-04-06T00:05:08.338Z,84.61
2018-04-06T00:06:08.248Z,84.51
2018-04-06T00:07:08.179Z,84.89
2018-04-06T00:08:08.089Z,84.89
2018-04-06T00:09:08.023Z,84.99
2018-04-06T00:10:07.931Z,85.46
2018-04-06T00:11:07.861Z,85.17
2018-04-06T00:12:07.771Z,84.70
2018-04-06T00:13:07.705Z,83.85
2018-04-06T00:14:07.612Z,81.95
2018-04-06T00:15:07.547Z,81.86
2018-04-06T00:16:07.456Z,83.18
2018-04-06T00:17:07.379Z,83.94
2018-04-06T00:18:07.297Z,84.70
2018-04-06T00:19:07.230Z,84.89
2018-04-06T00:20:07.134Z,84.99
2018-04-06T00:21:07.064Z,85.23
2018-04-06T00:22:06.981Z,85.42
2018-04-06T00:23:06.911Z,85.51
2018-04-06T00:24:06.819Z,86.08
2018-04-06T00:25:06.748Z,85.99
2018-04-06T00:26:06.659Z,86.08
2018-04-06T00:27:06.590Z,86.46
2018-04-06T00:28:06.496Z,85.99
2018-04-06T00:29:06.436Z,85.51
2018-04-06T00:30:06.344Z,86.08
2018-04-06T00:31:06.270Z,85.89
2018-04-06T00:32:06.184Z,86.08
2018-04-06T00:33:06.115Z,86.36
2018-04-06T00:34:06.065Z,86.46
2018-04-06T00:35:05.955Z,86.46
2018-04-06T00:36:05.871Z,86.08
2018-04-06T00:37:05.796Z,86.46
2018-04-06T00:38:05.710Z,86.55
2018-04-06T00:39:05.638Z,86.27
2018-04-06T00:40:05.550Z,86.55
2018-04-06T00:41:05.481Z,86.36
2018-04-06T00:42:05.391Z,86.36
2018-04-06T00:43:05.317Z,86.46
2018-04-06T00:44:05.232Z,86.27
2018-04-06T00:45:05.159Z,86.65
2018-04-06T00:46:05.071Z,86.18
2018-04-06T00:47:05.001Z,86.46
2018-04-06T00:48:04.911Z,86.27
2018-04-06T00:49:04.844Z,86.74
2018-04-06T00:50:04.762Z,86.74
2018-04-06T00:51:04.677Z,86.46
2018-04-06T00:52:04.588Z,87.21
2018-04-06T00:53:04.521Z,86.83
2018-04-06T00:54:04.437Z,87.31
2018-04-06T00:55:04.363Z,87.31
2018-04-06T00:56:04.274Z,87.40
2018-04-06T00:57:04.201Z,87.50
2018-04-06T00:58:04.114Z,87.21
2018-04-06T00:59:04.044Z,87.21
2018-04-06T01:00:03.954Z,87.31
2018-04-06T01:01:03.886Z,87.69
2018-04-06T01:02:03.798Z,87.69
2018-04-06T01:03:03.727Z,87.78
2018-04-06T01:04:03.635Z,88.26
2018-04-06T01:05:03.566Z,88.07
2018-04-06T01:06:03.477Z,88.26
2018-04-06T01:07:03.407Z,87.78
2018-04-06T01:08:03.317Z,87.88
2018-04-06T01:09:03.246Z,87.50
2018-04-06T01:10:03.155Z,86.83
2018-04-06T01:11:03.080Z,86.74
2018-04-06T01:12:02.998Z,87.21
2018-04-06T01:13:02.930Z,86.83
2018-04-06T01:14:02.835Z,85.89
2018-04-06T01:15:02.766Z,84.66
2018-04-06T01:16:02.681Z,84.66
2018-04-06T01:17:02.611Z,84.47
2018-04-06T01:18:02.516Z,85.85
2018-04-06T01:19:02.445Z,86.65
2018-04-06T01:20:02.358Z,87.93
2018-04-06T01:21:02.286Z,88.78
2018-04-06T01:22:02.204Z,90.11
2018-04-06T01:23:02.125Z,91.05
2018-04-06T01:24:02.038Z,91.15
2018-04-06T01:25:01.966Z,91.81
2018-04-06T01:26:01.909Z,92.10
2018-04-06T01:27:01.808Z,92.29
2018-04-06T01:28:01.719Z,92.00
2018-04-06T01:29:01.645Z,91.72
2018-04-06T01:30:01.557Z,91.43
2018-04-06T01:31:01.496Z,91.24
2018-04-06T01:32:01.398Z,90.77
2018-04-06T01:33:01.325Z,90.20
2018-04-06T01:34:01.238Z,90.30
2018-04-06T01:35:01.167Z,89.82
2018-04-06T01:36:01.077Z,89.54
2018-04-06T01:37:01.009Z,89.82
2018-04-06T01:38:00.921Z,89.06
2018-04-06T01:39:00.847Z,87.84
2018-04-06T01:40:00.761Z,87.84
2018-04-06T01:41:00.684Z,87.65
2018-04-06T01:42:00.599Z,87.74
2018-04-06T01:43:00.525Z,87.65
2018-04-06T01:44:00.437Z,88.40
2018-04-06T01:45:00.366Z,88.78
2018-04-06T01:46:00.277Z,89.35
2018-04-06T01:47:00.205Z,89.35
2018-04-06T01:48:00.120Z,88.78
2018-04-06T01:49:00.043Z,88.78
2018-04-06T01:49:59.953Z,89.06
2018-04-06T01:50:59.884Z,88.87
2018-04-06T01:51:59.795Z,89.35
2018-04-06T01:52:59.776Z,89.44
2018-04-06T01:53:59.635Z,89.25
2018-04-06T01:54:59.566Z,89.06
2018-04-06T01:55:59.473Z,88.87
2018-04-06T01:56:59.408Z,88.87
2018-04-06T01:57:59.318Z,88.78
2018-04-06T01:58:59.240Z,88.68
2018-04-06T01:59:59.155Z,89.06
2018-04-06T02:00:59.081Z,89.06
2018-04-06T02:01:58.994Z,89.35
2018-04-06T02:02:58.921Z,89.35
2018-04-06T02:03:58.833Z,89.06
2018-04-06T02:04:58.759Z,89.06
2018-04-06T02:05:58.673Z,89.06
2018-04-06T02:06:58.600Z,89.16
2018-04-06T02:07:58.514Z,89.54
2018-04-06T02:08:58.438Z,90.01
2018-04-06T02:09:58.350Z,90.30
2018-04-06T02:10:58.280Z,90.39
2018-04-06T02:11:58.198Z,90.48
2018-04-06T02:12:58.116Z,90.01
2018-04-06T02:13:58.030Z,90.11
2018-04-06T02:14:57.957Z,90.01
2018-04-06T02:15:57.869Z,90.11
2018-04-06T02:16:57.797Z,90.01
2018-04-06T02:17:57.707Z,90.01
2018-04-06T02:18:57.639Z,89.16
2018-04-06T02:19:57.547Z,85.80
2018-04-06T02:20:57.476Z,83.53
2018-04-06T02:21:57.384Z,83.63
2018-04-06T02:22:58.312Z,85.33
2018-04-06T02:23:57.225Z,87.79
2018-04-06T02:24:57.152Z,89.97
2018-04-06T02:25:57.065Z,91.20
2018-04-06T02:26:56.995Z,93.09
2018-04-06T02:27:56.905Z,92.33
2018-04-06T02:28:56.832Z,92.90
2018-04-06T02:29:56.741Z,93.18
2018-04-06T02:30:56.669Z,93.37
2018-04-06T02:31:56.580Z,93.18
2018-04-06T02:32:56.507Z,92.80
2018-04-06T02:33:56.419Z,92.33
2018-04-06T02:34:56.347Z,91.86
2018-04-06T02:35:56.258Z,91.77
2018-04-06T02:36:56.187Z,91.67
2018-04-06T02:37:56.097Z,91.20
2018-04-06T02:38:56.027Z,90.82
2018-04-06T02:39:55.937Z,91.01
2018-04-06T02:40:55.863Z,90.72
2018-04-06T02:41:55.778Z,90.25
2018-04-06T02:42:55.700Z,88.64
2018-04-06T02:43:55.613Z,86.75
2018-04-06T02:44:55.541Z,86.66
2018-04-06T02:45:55.451Z,88.07
2018-04-06T02:46:55.380Z,89.07
2018-04-06T02:47:55.289Z,90.49
2018-04-06T02:48:55.220Z,90.68
2018-04-06T02:49:55.133Z,92.38
2018-04-06T02:50:55.054Z,92.80
2018-04-06T02:51:54.966Z,92.80
2018-04-06T02:52:54.895Z,93.09
2018-04-06T02:53:54.806Z,92.80
2018-04-06T02:54:54.734Z,92.43
2018-04-06T02:55:54.644Z,92.61
2018-04-06T02:56:54.571Z,92.33
2018-04-06T02:57:54.485Z,92.14
2018-04-06T02:58:54.412Z,91.86
2018-04-06T02:59:54.320Z,91.96
2018-04-06T03:00:54.248Z,91.48
2018-04-06T03:01:54.164Z,91.01
2018-04-06T03:02:55.086Z,90.91
2018-04-06T03:03:53.996Z,91.01
2018-04-06T03:04:53.924Z,91.10
2018-04-06T03:05:53.836Z,90.91
2018-04-06T03:06:53.763Z,89.21
2018-04-06T03:07:53.673Z,88.45
2018-04-06T03:08:53.600Z,87.74
2018-04-06T03:09:53.512Z,88.03
2018-04-06T03:10:53.442Z,88.41
2018-04-06T03:11:53.351Z,88.98
2018-04-06T03:12:53.283Z,90.20
2018-04-06T03:13:53.190Z,91.05
2018-04-06T03:14:53.137Z,91.15
2018-04-06T03:15:53.026Z,92.38
2018-04-06T03:16:52.951Z,92.38
2018-04-06T03:17:52.863Z,92.57
2018-04-06T03:18:52.792Z,92.47
2018-04-06T03:19:52.706Z,92.85
2018-04-06T03:20:52.627Z,92.76
2018-04-06T03:21:52.541Z,92.43
2018-04-06T03:22:52.469Z,91.91
2018-04-06T03:23:52.379Z,91.53
2018-04-06T03:24:52.306Z,90.39
2018-04-06T03:25:52.218Z,88.31
2018-04-06T03:26:52.147Z,88.03
2018-04-06T03:27:52.055Z,88.69
2018-04-06T03:28:51.977Z,89.54
2018-04-06T03:29:51.894Z,91.05
2018-04-06T03:30:51.820Z,92.00
2018-04-06T03:31:51.739Z,92.66
2018-04-06T03:32:51.659Z,92.94
2018-04-06T03:33:51.573Z,93.51
2018-04-06T03:34:51.496Z,94.37
2018-04-06T03:35:51.404Z,93.70
2018-04-06T03:36:51.336Z,93.80
2018-04-06T03:37:51.245Z,93.32
2018-04-06T03:38:51.170Z,93.13
2018-04-06T03:39:51.082Z,93.04
2018-04-06T03:40:51.009Z,92.85
2018-04-06T03:41:50.916Z,93.04
2018-04-06T03:42:50.853Z,92.66
2018-04-06T03:43:50.760Z,91.34
2018-04-06T03:44:50.685Z,89.83
2018-04-06T03:45:50.597Z,89.07
2018-04-06T03:46:50.520Z,88.69
2018-04-06T03:47:50.432Z,89.92
2018-04-06T03:48:50.358Z,90.20
2018-04-06T03:49:50.272Z,91.15
2018-04-06T03:50:51.196Z,91.72
2018-04-06T03:51:50.109Z,92.38
2018-04-06T03:52:50.036Z,93.13
2018-04-06T03:53:49.949Z,93.23
2018-04-06T03:54:49.871Z,93.32
2018-04-06T03:55:49.781Z,93.13
2018-04-06T03:56:49.707Z,93.61
2018-04-06T03:57:49.617Z,93.61
2018-04-06T03:58:49.555Z,90.01
2018-04-06T03:59:49.457Z,88.98
2018-04-06T04:00:49.393Z,89.26
2018-04-06T04:01:49.303Z,89.07
2018-04-06T04:02:49.219Z,89.92
2018-04-06T04:03:49.130Z,90.96
2018-04-06T04:04:49.057Z,91.34
2018-04-06T04:05:48.971Z,92.57
2018-04-06T04:06:48.900Z,92.19
2018-04-06T04:07:48.807Z,92.94
2018-04-06T04:08:48.732Z,92.57
2018-04-06T04:09:48.642Z,92.10
2018-04-06T04:10:48.569Z,92.85
2018-04-06T04:11:48.481Z,91.91
2018-04-06T04:12:48.408Z,91.24
2018-04-06T04:13:48.319Z,91.34
2018-04-06T04:14:48.249Z,91.34
2018-04-06T04:15:48.154Z,92.00
2018-04-06T04:16:48.772Z,92.38
2018-04-06T04:17:47.992Z,92.38
2018-04-06T04:18:47.926Z,92.19
2018-04-06T04:19:47.826Z,91.81
2018-04-06T04:20:47.754Z,92.19
2018-04-06T04:21:47.666Z,92.76
2018-04-06T04:22:47.593Z,92.76
2018-04-06T04:23:47.502Z,92.85
2018-04-06T04:24:47.430Z,93.42
2018-04-06T04:25:47.341Z,92.85
2018-04-06T04:26:47.263Z,91.53
2018-04-06T04:27:47.175Z,90.20
2018-04-06T04:28:47.105Z,90.96
2018-04-06T04:29:47.021Z,91.72
2018-04-06T04:30:46.940Z,92.47
2018-04-06T04:31:46.850Z,92.76
2018-04-06T04:32:47.777Z,93.42
2018-04-06T04:33:46.698Z,93.70
2018-04-06T04:34:46.614Z,93.51
2018-04-06T04:35:46.521Z,93.80
2018-04-06T04:36:46.447Z,94.08
2018-04-06T04:37:46.363Z,93.99
2018-04-06T04:38:46.291Z,93.42
2018-04-06T04:39:46.199Z,93.32
2018-04-06T04:40:46.127Z,92.66
2018-04-06T04:41:46.036Z,92.29
2018-04-06T04:42:45.960Z,92.76
2018-04-06T04:43:45.872Z,92.66
2018-04-06T04:44:45.797Z,92.38
2018-04-06T04:45:45.712Z,90.77
2018-04-06T04:46:45.672Z,88.41
2018-04-06T04:47:45.546Z,86.38
2018-04-06T04:48:45.472Z,85.91
2018-04-06T04:49:45.380Z,86.66
2018-04-06T04:50:45.315Z,88.93
2018-04-06T04:51:45.219Z,90.91
2018-04-06T04:52:45.139Z,91.96
2018-04-06T04:53:45.051Z,92.43
2018-04-06T04:54:44.978Z,92.43
2018-04-06T04:55:44.890Z,92.14
2018-04-06T04:56:44.813Z,91.29
2018-04-06T04:57:44.727Z,89.40
2018-04-06T04:58:44.653Z,88.65
2018-04-06T04:59:44.564Z,88.46
2018-04-06T05:00:44.492Z,88.65
2018-04-06T05:01:44.404Z,90.16
2018-04-06T05:02:44.327Z,91.77
2018-04-06T05:03:44.238Z,92.61
2018-04-06T05:04:44.166Z,92.71
2018-04-06T05:05:44.076Z,91.48
2018-04-06T05:06:44.004Z,91.01
2018-04-06T05:07:43.910Z,90.16
2018-04-06T05:08:43.837Z,90.63
2018-04-06T05:09:43.753Z,91.48
2018-04-06T05:10:43.673Z,91.86
2018-04-06T05:11:43.581Z,92.33
2018-04-06T05:12:43.510Z,92.33
2018-04-06T05:13:43.419Z,92.43
2018-04-06T05:14:43.348Z,93.37
2018-04-06T05:15:43.255Z,93.18
2018-04-06T05:16:43.183Z,93.37
2018-04-06T05:17:43.092Z,93.84
2018-04-06T05:18:43.017Z,94.41
2018-04-06T05:19:42.928Z,94.46
2018-04-06T05:20:42.854Z,94.27
2018-04-06T05:21:42.762Z,94.27
2018-04-06T05:22:42.691Z,94.27
2018-04-06T05:23:42.603Z,94.37
2018-04-06T05:24:42.527Z,93.70
2018-04-06T05:25:42.438Z,92.76
2018-04-06T05:26:42.368Z,92.38
2018-04-06T05:27:42.273Z,92.71
2018-04-06T05:28:42.203Z,93.42
2018-04-06T05:29:42.113Z,93.42
2018-04-06T05:30:42.035Z,94.32
2018-04-06T05:31:41.945Z,94.65
2018-04-06T05:32:41.873Z,95.40
2018-04-06T05:33:41.782Z,95.59
2018-04-06T05:34:41.707Z,95.03
2018-04-06T05:35:41.627Z,95.03
2018-04-06T05:36:41.536Z,95.40
2018-04-06T05:37:41.463Z,95.31
2018-04-06T05:38:41.438Z,95.31
2018-04-06T05:39:41.298Z,95.31
2018-04-06T05:40:41.210Z,95.31
2018-04-06T05:41:41.142Z,95.97
2018-04-06T05:42:41.045Z,95.50
2018-04-06T05:43:40.973Z,95.31
2018-04-06T05:44:40.883Z,95.59
2018-04-06T05:45:40.807Z,95.21
2018-04-06T05:46:40.721Z,95.31
2018-04-06T05:47:40.643Z,95.31
2018-04-06T05:48:40.560Z,95.50
2018-04-06T05:49:40.482Z,95.69
2018-04-06T05:50:40.394Z,95.88
2018-04-06T05:51:40.356Z,95.59
2018-04-06T05:52:40.227Z,95.88
2018-04-06T05:53:40.265Z,95.97
2018-04-06T05:54:40.066Z,96.26
2018-04-06T05:55:40.074Z,95.69
2018-04-06T05:56:39.901Z,95.69
2018-04-06T05:57:39.826Z,95.59
2018-04-06T05:58:39.738Z,95.40
2018-04-06T05:59:39.693Z,95.50
2018-04-06T06:00:39.574Z,95.40
2018-04-06T06:01:39.501Z,95.59
2018-04-06T06:02:39.414Z,95.69
2018-04-06T06:03:39.415Z,95.78
2018-04-06T06:04:39.248Z,95.50
2018-04-06T06:05:39.222Z,95.31
2018-04-06T06:06:39.087Z,95.12
2018-04-06T06:07:39.031Z,95.31
2018-04-06T06:08:38.920Z,95.12
2018-04-06T06:09:38.943Z,95.12
2018-04-06T06:10:38.758Z,95.03
2018-04-06T06:11:38.752Z,95.50
2018-04-06T06:12:38.595Z,95.74
2018-04-06T06:13:38.561Z,95.17
2018-04-06T06:14:38.432Z,95.93
2018-04-06T06:15:38.469Z,96.31
2018-04-06T06:16:38.268Z,96.31
2018-04-06T06:17:38.280Z,97.16
2018-04-06T06:18:38.107Z,96.21
2018-04-06T06:19:38.032Z,96.40
2018-04-06T06:20:37.943Z,96.40
2018-04-06T06:21:37.901Z,96.12
2018-04-06T06:22:37.780Z,96.97
2018-04-06T06:23:37.809Z,96.59
2018-04-06T06:24:37.623Z,96.40
2018-04-06T06:25:37.618Z,96.21
2018-04-06T06:26:37.454Z,96.40
2018-04-06T06:27:37.454Z,95.83
2018-04-06T06:28:37.288Z,96.02
2018-04-06T06:29:37.261Z,96.97
2018-04-06T06:30:37.136Z,96.78
2018-04-06T06:31:37.072Z,96.78
2018-04-06T06:32:36.966Z,97.44
2018-04-06T06:33:36.983Z,96.73
2018-04-06T06:34:36.802Z,96.35
2018-04-06T06:35:36.730Z,96.92
2018-04-06T06:36:36.639Z,96.64
2018-04-06T06:37:36.601Z,96.07
2018-04-06T06:38:36.480Z,96.16
2018-04-06T06:39:36.511Z,95.21
2018-04-06T06:40:36.316Z,95.59
2018-04-06T06:41:36.315Z,95.59
2018-04-06T06:42:36.156Z,95.40
2018-04-06T06:43:36.126Z,94.27
2018-04-06T06:44:35.992Z,94.08
2018-04-06T06:45:35.937Z,93.89
2018-04-06T06:46:35.830Z,93.32
2018-04-06T06:47:35.850Z,92.94
2018-04-06T06:48:35.670Z,93.75
2018-04-06T06:49:35.656Z,93.46
2018-04-06T06:50:35.508Z,93.08
2018-04-06T06:51:35.465Z,93.56
2018-04-06T06:52:35.343Z,95.36
2018-04-06T06:53:35.376Z,95.74
2018-04-06T06:54:35.182Z,95.74
2018-04-06T06:55:35.186Z,94.79
2018-04-06T06:56:35.017Z,94.42
2018-04-06T06:57:34.991Z,93.65
2018-04-06T06:58:34.855Z,92.99
2018-04-06T06:59:34.783Z,92.43
2018-04-06T07:00:34.693Z,92.61
2018-04-06T07:01:34.712Z,92.85
2018-04-06T07:02:34.535Z,92.24
2018-04-06T07:03:34.517Z,92.09
2018-04-06T07:04:34.374Z,91.81
2018-04-06T07:05:34.326Z,92.28
2018-04-06T07:06:34.214Z,92.28
2018-04-06T07:07:34.241Z,91.71
2018-04-06T07:08:34.050Z,91.43
2018-04-06T07:09:34.049Z,91.33
2018-04-06T07:10:33.892Z,91.24
2018-04-06T07:11:33.857Z,91.14
2018-04-06T07:12:33.729Z,90.39
2018-04-06T07:13:33.663Z,89.72
2018-04-06T07:14:33.565Z,88.82
2018-04-06T07:15:33.572Z,89.48
2018-04-06T07:16:33.412Z,89.11
2018-04-06T07:17:34.282Z,89.29
2018-04-06T07:18:33.243Z,89.01
2018-04-06T07:19:33.191Z,86.35
2018-04-06T07:20:33.084Z,84.55
2018-04-06T07:21:33.012Z,84.08
2018-04-06T07:22:33.007Z,84.27
2018-04-06T07:23:32.842Z,84.94
2018-04-06T07:24:32.816Z,85.78
2018-04-06T07:25:32.698Z,85.50
2018-04-06T07:26:32.624Z,84.78
2018-04-06T07:27:32.530Z,83.65
2018-04-06T07:28:32.455Z,83.94
2018-04-06T07:29:32.364Z,83.74
2018-04-06T07:30:32.346Z,83.94
2018-04-06T07:31:32.202Z,82.89
2018-04-06T07:32:32.237Z,82.32
2018-04-06T07:33:32.042Z,81.75
2018-04-06T07:34:32.065Z,81.47
2018-04-06T07:35:31.885Z,81.27
2018-04-06T07:36:31.881Z,81.70
2018-04-06T07:37:31.727Z,81.23
2018-04-06T07:38:31.683Z,81.41
2018-04-06T07:39:31.566Z,80.94
2018-04-06T07:40:31.593Z,80.94
2018-04-06T07:41:31.409Z,81.23
2018-04-06T07:42:31.401Z,80.88
2018-04-06T07:43:31.247Z,80.03
2018-04-06T07:44:31.214Z,79.27
2018-04-06T07:45:31.087Z,78.32
2018-04-06T07:46:31.119Z,77.94
2018-04-06T07:47:30.932Z,78.51
2018-04-06T07:48:30.927Z,77.09
2018-04-06T07:49:30.778Z,77.09
2018-04-06T07:50:30.703Z,78.13
2018-04-06T07:51:30.614Z,78.13
2018-04-06T07:52:30.652Z,76.14
2018-04-06T07:53:30.462Z,75.76
2018-04-06T07:54:30.459Z,75.57
2018-04-06T07:55:30.303Z,75.79
2018-04-06T07:56:30.266Z,74.05
2018-04-06T07:57:30.143Z,73.52
2018-04-06T07:58:34.887Z,74.08
2018-04-06T07:59:29.991Z,74.47
2018-04-06T08:00:31.933Z,74.75
2018-04-06T08:01:29.831Z,74.47
2018-04-06T08:02:41.365Z,74.94
2018-04-06T08:03:29.671Z,74.79
2018-04-06T08:04:36.461Z,72.70
2018-04-06T08:05:29.519Z,72.03
2018-04-06T08:06:29.512Z,72.51
2018-04-06T08:07:29.362Z,73.36
2018-04-06T08:08:29.323Z,72.70
2018-04-06T08:09:29.199Z,73.02
2018-04-06T08:10:29.233Z,71.31
2018-04-06T08:11:29.049Z,70.54
2018-04-06T08:12:30.065Z,71.22
2018-04-06T08:13:28.934Z,70.30
2018-04-06T08:14:28.850Z,70.30
2018-04-06T08:15:28.731Z,71.44
2018-04-06T08:16:28.757Z,69.82
2018-04-06T08:17:28.588Z,70.20
2018-04-06T08:18:28.574Z,70.62
2018-04-06T08:19:28.434Z,70.05
2018-04-06T08:20:28.395Z,69.48
2018-04-06T08:21:28.277Z,65.77
2018-04-06T08:22:28.286Z,65.00
2018-04-06T08:23:28.117Z,66.91
2018-04-06T08:24:28.059Z,66.43
2018-04-06T08:25:27.965Z,64.81
2018-04-06T08:26:27.911Z,62.72
2018-04-06T08:27:27.816Z,62.81
2018-04-06T08:28:27.742Z,62.81
2018-04-06T08:29:27.656Z,61.96
2018-04-06T08:30:27.589Z,61.29
2018-04-06T08:31:27.499Z,61.96
2018-04-06T08:32:27.435Z,62.24
2018-04-06T10:21:26.581Z,50.85
2018-04-06T10:22:26.562Z,51.90
2018-04-06T10:24:22.505Z,51.90
2018-04-06T10:25:22.325Z,52.09
2018-04-06T10:26:22.288Z,50.85
2018-04-06T10:27:22.168Z,50.38
2018-04-06T10:28:22.201Z,50.28
2018-04-06T10:29:22.010Z,51.23
2018-04-06T10:30:22.011Z,50.57
2018-04-06T10:31:21.855Z,50.95
2018-04-06T10:32:21.816Z,51.14
2018-04-06T10:33:21.706Z,51.83
2018-04-06T10:34:21.727Z,50.95
2018-04-06T10:35:21.550Z,50.18
2018-04-06T10:36:21.541Z,51.23
2018-04-06T10:37:21.397Z,51.74
2018-04-06T10:38:21.346Z,50.28
2018-04-06T10:39:21.246Z,52.28
2018-04-06T10:40:22.175Z,52.31
2018-04-06T10:41:21.095Z,49.64
2018-04-06T10:42:21.069Z,49.83
2018-04-06T10:43:20.948Z,49.93
2018-04-06T10:44:20.978Z,49.23
2018-04-06T10:45:20.794Z,49.71
2018-04-06T10:46:20.787Z,49.52
2018-04-06T10:47:20.648Z,49.62
2018-04-06T10:48:20.598Z,50.95
2018-04-06T10:49:20.498Z,51.14
2018-04-06T10:50:20.509Z,50.88
2018-04-06T10:51:20.368Z,49.73
2018-04-06T10:52:20.315Z,49.26
2018-04-06T10:53:20.239Z,47.92
2018-04-06T10:54:20.229Z,48.08
2018-04-06T10:55:20.044Z,48.28
2018-04-06T10:56:20.043Z,48.57
2018-04-06T10:57:19.893Z,49.33
2018-04-06T10:58:19.845Z,48.75
2018-04-06T10:59:19.748Z,48.37
2018-04-06T11:00:19.758Z,47.42
2018-04-06T11:01:19.597Z,48.08
2018-04-06T11:02:19.568Z,49.13
2018-04-06T11:03:19.449Z,48.37
2018-04-06T11:04:19.486Z,46.87
2018-04-06T11:05:19.301Z,46.27
2018-04-06T11:06:19.239Z,47.23
2018-04-06T11:07:19.164Z,49.23
2018-04-06T11:08:19.102Z,48.85
2018-04-06T11:09:19.007Z,48.66
2018-04-06T11:10:19.016Z,48.47
2018-04-06T11:11:18.853Z,48.39
2018-04-06T11:12:18.823Z,50.69
2018-04-06T11:13:18.706Z,51.07
2018-04-06T11:14:18.737Z,49.16
2018-04-06T11:15:18.560Z,49.26
2018-04-06T11:16:18.596Z,50.49
2018-04-06T11:17:18.409Z,50.12
2018-04-06T11:18:18.452Z,49.35
2018-04-06T11:19:18.266Z,50.88
2018-04-06T11:20:18.266Z,50.12
2018-04-06T11:21:18.120Z,49.16
2018-04-06T11:22:18.068Z,49.23
2018-04-06T11:23:17.973Z,49.80
2018-04-06T11:24:17.901Z,50.31
2018-04-06T11:25:17.824Z,50.98
2018-04-06T11:26:17.792Z,51.54
2018-04-06T11:27:17.677Z,52.12
2018-04-06T11:28:17.695Z,52.24
2018-04-06T11:29:17.528Z,50.52
2018-04-06T11:30:17.511Z,50.90
2018-04-06T11:31:17.379Z,51.38
2018-04-06T11:32:17.421Z,51.26
2018-04-06T11:33:17.232Z,49.64
2018-04-06T11:34:17.237Z,49.35
2018-04-06T11:35:17.087Z,52.03
2018-04-06T11:36:17.037Z,52.15
2018-04-06T11:37:16.940Z,49.26
2018-04-06T11:38:16.946Z,49.16
2018-04-06T11:39:16.795Z,49.16
2018-04-06T11:40:16.755Z,49.35
2018-04-06T11:41:16.649Z,49.64
2018-04-06T11:42:16.667Z,49.93
2018-04-06T11:43:16.501Z,50.14
2018-04-06T11:44:16.476Z,51.09
2018-04-06T11:45:16.353Z,51.29
2018-04-06T11:46:16.392Z,49.95
2018-04-06T11:47:16.209Z,49.18
2018-04-06T11:48:16.139Z,49.66
2018-04-06T11:49:16.059Z,48.54
2018-04-06T11:50:16.007Z,47.47
2018-04-06T11:51:15.920Z,47.56
2018-04-06T11:52:15.920Z,49.18
2018-04-06T11:53:15.767Z,50.45
2018-04-06T11:54:15.730Z,51.21
2018-04-06T11:55:15.629Z,51.21
2018-04-06T11:56:15.653Z,47.49
2018-04-06T11:57:15.519Z,47.97
2018-04-06T11:58:15.402Z,49.21
2018-04-06T11:59:15.330Z,50.07
2018-04-06T12:00:15.362Z,47.49
2018-04-06T12:01:15.183Z,47.11
2018-04-06T12:02:15.272Z,48.13
2018-04-06T12:03:15.039Z,49.47
2018-04-06T12:04:15.076Z,50.04
2018-04-06T12:05:14.894Z,50.33
2018-04-06T12:06:14.890Z,50.14
2018-04-06T12:07:14.744Z,52.24
2018-04-06T12:08:14.701Z,51.48
2018-04-06T12:09:14.600Z,49.76
2018-04-06T12:10:14.612Z,49.47
2018-04-06T12:11:14.465Z,48.04
2018-04-06T12:12:14.422Z,47.56
2018-04-06T12:13:14.311Z,47.37
2018-04-06T12:14:14.334Z,48.71
2018-04-06T12:15:14.164Z,49.18
2018-04-06T12:16:14.142Z,49.30
2018-04-06T12:17:14.018Z,50.45
2018-04-06T12:18:13.983Z,48.25
2018-04-06T12:19:13.875Z,47.78
2018-04-06T12:20:13.896Z,46.44
2018-04-06T12:21:13.729Z,46.34
2018-04-06T12:22:13.698Z,48.25
2018-04-06T12:23:13.579Z,48.16
2018-04-06T12:24:13.607Z,48.93
2018-04-06T12:25:13.432Z,48.64
2018-04-06T12:26:13.372Z,49.88
2018-04-06T12:27:13.401Z,48.44
2018-04-06T12:28:13.223Z,48.73
2018-04-06T12:29:13.207Z,48.16
2018-04-06T12:30:13.078Z,47.99
2018-04-06T12:31:13.117Z,48.28
2018-04-06T12:32:12.927Z,47.99
2018-04-06T12:33:12.929Z,49.43
2018-04-06T12:34:12.781Z,50.00
2018-04-06T12:35:12.737Z,49.71
2018-04-06T12:36:12.635Z,49.33
2018-04-06T12:37:12.648Z,49.23
2018-04-06T12:38:12.493Z,49.80
2018-04-06T12:39:12.425Z,49.23
2018-04-06T12:40:12.349Z,49.90
2018-04-06T12:41:12.365Z,50.67
2018-04-06T12:42:12.200Z,48.18
2018-04-06T12:43:12.185Z,48.18
2018-04-06T12:44:12.059Z,48.18
2018-04-06T12:45:12.001Z,49.52
2018-04-06T12:46:11.910Z,49.80
2018-04-06T12:47:11.900Z,46.66
2018-04-06T12:48:11.770Z,46.08
2018-04-06T12:49:11.809Z,45.98
2018-04-06T12:50:11.633Z,45.98
2018-04-06T12:51:11.615Z,46.46
2018-04-06T12:52:11.481Z,46.56
2018-04-06T12:53:11.405Z,45.60
2018-04-06T12:54:11.440Z,45.60
2018-04-06T12:55:11.262Z,45.51
2018-04-06T12:56:11.189Z,45.89
2018-04-06T12:57:11.117Z,48.28
2018-04-06T12:58:11.045Z,47.52
2018-04-06T12:59:10.974Z,46.27
2018-04-06T13:00:10.901Z,46.94
2018-04-06T13:01:10.974Z,48.09
2018-04-06T13:02:10.756Z,47.80
2018-04-06T13:03:10.878Z,48.18
2018-04-06T13:04:10.611Z,48.18
2018-04-06T13:05:10.695Z,48.18
2018-04-06T13:06:10.500Z,48.75
2018-04-06T13:07:10.501Z,47.99
2018-04-06T13:08:10.321Z,47.34
2018-04-06T13:09:10.414Z,46.84
2018-04-06T13:10:10.178Z,47.03
2018-04-06T13:11:10.222Z,47.61
2018-04-06T13:12:10.034Z,48.18
2018-04-06T13:13:10.131Z,48.28
2018-04-06T13:14:09.897Z,47.99
2018-04-06T13:15:09.816Z,48.09
2018-04-06T13:16:09.974Z,49.04
2018-04-06T13:17:09.675Z,49.23
2018-04-06T13:18:09.756Z,49.71
2018-04-06T13:19:09.534Z,49.23
2018-04-06T13:20:09.456Z,48.66
2018-04-06T13:21:09.491Z,47.89
2018-04-06T13:22:09.313Z,48.18
2018-04-06T13:23:09.293Z,47.42
2018-04-06T13:24:09.170Z,48.47
2018-04-06T13:25:09.094Z,48.75
2018-04-06T13:26:09.176Z,49.43
2018-04-06T13:27:08.956Z,49.33
2018-04-06T13:28:08.916Z,49.14
2018-04-06T13:29:08.809Z,49.14
2018-04-06T13:30:08.743Z,49.71
2018-04-06T13:31:08.716Z,48.38
2018-04-06T13:32:08.597Z,49.43
2018-04-06T13:33:08.525Z,48.68
2018-04-06T13:34:08.447Z,48.68
2018-04-06T13:35:08.384Z,48.21
2018-04-06T13:36:08.303Z,48.11
2018-04-06T13:37:08.249Z,48.21
2018-04-06T13:38:08.159Z,47.27
2018-04-06T13:39:08.090Z,46.70
2018-04-06T13:40:08.019Z,44.57
2018-04-06T13:41:07.944Z,44.67
2018-04-06T13:42:07.874Z,43.90
2018-04-06T13:43:07.803Z,44.57
2018-04-06T13:44:07.730Z,44.67
2018-04-06T13:45:07.654Z,45.24
2018-04-06T13:46:07.588Z,43.43
2018-04-06T13:47:07.511Z,44.29
2018-04-06T13:48:07.444Z,44.76
2018-04-06T13:49:07.376Z,45.15
2018-04-06T13:50:07.300Z,44.67
2018-04-06T13:51:07.221Z,44.19
2018-04-06T13:52:07.157Z,45.34
2018-04-06T13:53:07.087Z,45.24
2018-04-06T13:54:07.015Z,44.00
2018-04-06T13:55:06.944Z,42.66
2018-04-06T13:56:06.868Z,42.94
2018-04-06T13:57:06.794Z,42.66
2018-04-06T13:58:06.727Z,41.61
2018-04-06T13:59:06.654Z,41.51
2018-04-06T14:00:06.588Z,41.70
2018-04-06T14:01:06.597Z,42.94
2018-04-06T14:02:06.437Z,42.66
2018-04-06T14:03:06.363Z,42.47
2018-04-06T14:04:06.302Z,43.04
2018-04-06T14:05:06.222Z,43.21
2018-04-06T14:06:06.151Z,43.88
2018-04-06T14:07:06.078Z,43.69
2018-04-06T14:08:06.007Z,43.98
2018-04-06T14:09:05.938Z,43.02
2018-04-06T14:10:05.862Z,43.88
2018-04-06T14:11:05.945Z,43.43
2018-04-06T14:12:05.719Z,42.94
2018-04-06T14:13:05.647Z,44.00
2018-04-06T14:14:05.575Z,44.19
2018-04-06T14:15:05.543Z,42.76
2018-04-06T14:16:05.426Z,43.33
2018-04-06T14:17:05.395Z,42.66
2018-04-06T14:18:05.288Z,42.37
2018-04-06T14:19:05.220Z,41.22
2018-04-06T14:20:05.142Z,40.75
2018-04-06T14:21:05.072Z,40.75
2018-04-06T14:22:05.002Z,41.32
2018-04-06T14:23:04.926Z,40.65
2018-04-06T14:24:04.861Z,39.98
2018-04-06T14:25:04.779Z,40.94
2018-04-06T14:26:04.711Z,40.94
2018-04-06T14:27:04.638Z,41.13
2018-04-06T14:28:04.570Z,40.46
2018-04-06T14:29:04.492Z,41.22
2018-04-06T14:30:04.425Z,39.22
2018-04-06T14:31:04.350Z,39.98
2018-04-06T14:32:04.290Z,38.93
2018-04-06T14:33:04.205Z,39.40
2018-04-06T14:34:04.137Z,40.26
2018-04-06T14:35:04.067Z,40.94
2018-04-06T14:36:03.996Z,39.31
2018-04-06T14:37:03.916Z,38.54
2018-04-06T14:38:03.843Z,39.40
2018-04-06T14:39:03.776Z,39.22
2018-04-06T14:40:03.702Z,38.54